createdAt,value
2017-09-22T00:02:27.518Z,24.47
2017-09-22T00:05:29.862Z,24.67
2017-09-22T00:08:31.815Z,25.43
2017-09-22T00:11:34.209Z,26.30
2017-09-22T00:14:36.265Z,28.30
2017-09-22T00:17:38.608Z,27.37
2017-09-22T00:20:40.943Z,26.10
2017-09-22T00:23:43.287Z,26.70
2017-09-22T00:26:45.347Z,27.20
2017-09-22T00:29:47.734Z,26.73
2017-09-22T00:32:49.771Z,27.50
2017-09-22T00:35:52.071Z,28.70
2017-09-22T00:38:54.008Z,30.00
2017-09-22T00:41:57.406Z,28.70
2017-09-22T00:44:59.368Z,28.93
2017-09-22T00:48:02.491Z,32.57
2017-09-22T00:51:04.477Z,31.50
2017-09-22T00:54:07.610Z,30.27
2017-09-22T00:57:09.552Z,29.90
2017-09-22T01:00:11.839Z,29.90
2017-09-22T01:03:14.844Z,27.63
2017-09-22T01:06:17.949Z,29.47
2017-09-22T01:09:19.892Z,29.77
2017-09-22T01:12:22.197Z,30.97
2017-09-22T01:15:24.215Z,29.10
2017-09-22T01:18:26.542Z,30.73
2017-09-22T01:21:28.504Z,32.40
2017-09-22T01:24:30.878Z,31.20
2017-09-22T01:27:33.749Z,31.90
2017-09-22T01:30:36.090Z,34.73
2017-09-22T01:33:38.446Z,33.67
2017-09-22T01:36:40.816Z,30.90
2017-09-22T01:39:42.748Z,29.63
2017-09-22T01:42:45.107Z,32.70
2017-09-22T01:45:47.079Z,28.67
2017-09-22T01:48:50.400Z,31.47
2017-09-22T01:51:53.203Z,29.80
2017-09-22T01:54:55.606Z,30.53
2017-09-22T01:57:57.623Z,28.73
2017-09-22T02:00:59.963Z,27.67
2017-09-22T02:04:02.020Z,29.23
2017-09-22T02:07:04.372Z,30.70
2017-09-22T02:10:06.395Z,32.70
2017-09-22T02:13:09.523Z,34.00
2017-09-22T02:16:11.568Z,32.67
2017-09-22T02:19:13.935Z,32.73
2017-09-22T02:22:16.028Z,32.13
2017-09-22T02:25:19.163Z,34.53
2017-09-22T02:28:21.204Z,33.40
2017-09-22T02:31:23.544Z,32.27
2017-09-22T02:34:25.600Z,34.50
2017-09-22T02:37:27.862Z,31.57
2017-09-22T02:40:29.901Z,32.60
2017-09-22T02:43:32.277Z,29.67
2017-09-22T02:46:34.411Z,28.83
2017-09-22T02:49:36.775Z,30.30
2017-09-22T02:52:38.922Z,28.10
2017-09-22T02:55:41.292Z,27.33
2017-09-22T02:58:43.219Z,28.97
2017-09-22T03:01:45.615Z,29.00
2017-09-22T03:04:47.543Z,31.33
2017-09-22T03:07:49.825Z,30.17
2017-09-22T03:10:51.845Z,37.10
2017-09-22T03:13:54.196Z,35.27
2017-09-22T03:16:56.247Z,35.33
2017-09-22T03:19:58.622Z,37.43
2017-09-22T03:23:00.659Z,37.13
2017-09-22T03:26:03.017Z,36.57
2017-09-22T03:29:04.960Z,37.87
2017-09-22T03:32:07.423Z,37.97
2017-09-22T03:35:09.364Z,37.93
2017-09-22T03:38:11.727Z,43.37
2017-09-22T03:41:13.659Z,39.90
2017-09-22T03:44:16.045Z,44.63
2017-09-22T03:47:18.080Z,43.33
2017-09-22T03:50:20.459Z,47.57
2017-09-22T03:53:22.591Z,46.87
2017-09-22T03:56:24.953Z,46.97
2017-09-22T03:59:26.889Z,47.37
2017-09-22T04:02:29.256Z,47.07
2017-09-22T04:05:31.183Z,47.43
2017-09-22T04:08:34.280Z,45.60
2017-09-22T04:11:36.237Z,41.77
2017-09-22T04:14:38.657Z,41.87
2017-09-22T04:17:41.455Z,43.60
2017-09-22T04:20:43.812Z,40.80
2017-09-22T04:23:45.757Z,43.90
2017-09-22T04:26:48.120Z,42.23
2017-09-22T04:29:50.048Z,42.13
2017-09-22T04:32:52.440Z,41.30
2017-09-22T04:35:54.377Z,43.13
2017-09-22T04:38:56.731Z,42.90
2017-09-22T04:41:58.673Z,40.97
2017-09-22T04:45:01.035Z,40.23
2017-09-22T04:48:02.958Z,40.07
2017-09-22T04:51:05.331Z,40.03
2017-09-22T04:54:07.275Z,40.20
2017-09-22T04:57:09.534Z,43.10
2017-09-22T05:00:11.458Z,43.97
2017-09-22T05:03:14.570Z,45.10
2017-09-22T05:06:16.611Z,47.13
2017-09-22T05:09:19.018Z,47.80
2017-09-22T05:12:21.031Z,46.73
2017-09-22T05:15:23.593Z,46.87
2017-09-22T05:18:25.528Z,46.00
2017-09-22T05:21:27.897Z,46.63
2017-09-22T05:24:29.953Z,45.27
2017-09-22T05:27:32.292Z,43.10
2017-09-22T05:30:34.228Z,45.03
2017-09-22T05:33:36.611Z,46.53
2017-09-22T05:36:38.557Z,46.77
2017-09-22T05:39:40.866Z,47.33
2017-09-22T05:42:43.163Z,48.50
2017-09-22T05:45:45.457Z,55.10
2017-09-22T05:48:47.460Z,50.97
2017-09-22T05:51:49.710Z,52.73
2017-09-22T05:54:51.689Z,54.60
2017-09-22T05:57:54.046Z,56.33
2017-09-22T06:00:56.074Z,55.27
2017-09-22T06:03:58.342Z,56.73
2017-09-22T06:07:00.281Z,54.40
2017-09-22T06:10:02.635Z,51.70
2017-09-22T06:13:04.592Z,54.93
2017-09-22T06:16:06.961Z,53.40
2017-09-22T06:19:08.901Z,54.40
2017-09-22T06:22:11.243Z,52.30
2017-09-22T06:25:13.333Z,53.30
2017-09-22T06:28:15.675Z,52.77
2017-09-22T06:31:17.613Z,52.20
2017-09-22T06:34:19.963Z,53.47
2017-09-22T06:37:21.885Z,54.23
2017-09-22T06:40:25.577Z,54.17
2017-09-22T06:43:27.506Z,52.57
2017-09-22T06:46:29.920Z,52.70
2017-09-22T06:49:31.950Z,51.27
2017-09-22T06:52:34.211Z,53.33
2017-09-22T06:55:36.154Z,51.57
2017-09-22T06:58:38.518Z,52.30
2017-09-22T07:01:40.513Z,50.00
2017-09-22T07:04:42.878Z,49.87
2017-09-22T07:07:44.822Z,49.03
2017-09-22T07:10:47.241Z,47.57
2017-09-22T07:13:49.322Z,47.27
2017-09-22T07:16:51.645Z,47.67
2017-09-22T07:19:53.789Z,46.03
2017-09-22T07:22:56.140Z,46.53
2017-09-22T07:25:58.101Z,47.55
2017-09-22T07:29:00.407Z,46.80
2017-09-22T07:32:02.403Z,42.08
2017-09-22T07:35:04.756Z,40.30
2017-09-22T07:38:06.697Z,37.30
2017-09-22T07:41:09.060Z,38.80
2017-09-22T07:44:11.028Z,38.72
2017-09-22T07:47:13.331Z,35.78
2017-09-22T07:50:16.039Z,33.97
2017-09-22T07:53:18.350Z,36.40
2017-09-22T07:56:20.336Z,36.75
2017-09-22T07:59:22.792Z,35.42
2017-09-22T08:02:25.689Z,35.35
2017-09-22T08:05:27.995Z,33.45
2017-09-22T08:08:30.694Z,31.45
2017-09-22T08:11:33.051Z,30.42
2017-09-22T08:14:34.995Z,29.30
2017-09-22T08:17:37.295Z,30.65
2017-09-22T08:20:39.244Z,29.33
2017-09-22T08:23:42.274Z,27.87
2017-09-22T08:26:44.232Z,27.75
2017-09-22T08:29:46.575Z,24.67
2017-09-22T08:32:48.531Z,24.33
2017-09-22T08:35:51.699Z,25.48
2017-09-22T08:38:53.649Z,22.52
2017-09-22T08:41:55.944Z,21.85
2017-09-22T08:44:57.959Z,20.77
2017-09-22T08:48:00.256Z,20.10
2017-09-22T08:51:02.273Z,19.05
2017-09-22T08:54:04.592Z,18.87
2017-09-22T08:57:07.591Z,15.73
2017-09-22T09:00:09.956Z,16.23
2017-09-22T09:03:12.006Z,17.12
2017-09-22T09:06:14.561Z,17.05
2017-09-22T09:09:16.510Z,16.27
2017-09-22T09:12:18.879Z,12.93
2017-09-22T09:15:21.748Z,14.45
2017-09-22T09:18:24.825Z,14.82
2017-09-22T09:21:26.876Z,16.85
2017-09-22T09:24:29.231Z,14.77
2017-09-22T09:27:31.233Z,14.35
2017-09-22T09:30:34.369Z,14.52
2017-09-22T09:33:36.493Z,12.68
2017-09-22T09:36:38.868Z,12.82
2017-09-22T09:39:40.799Z,13.32
2017-09-22T09:42:43.182Z,13.38
2017-09-22T09:45:45.130Z,13.18
2017-09-22T09:48:47.476Z,11.77
2017-09-22T09:51:49.429Z,11.25
2017-09-22T09:54:51.784Z,10.50
2017-09-22T09:57:53.915Z,11.27
2017-09-22T10:00:56.279Z,10.15
2017-09-22T10:03:58.260Z,13.13
2017-09-22T10:07:01.506Z,12.65
2017-09-22T10:10:03.464Z,10.68
2017-09-22T10:13:05.762Z,11.27
2017-09-22T10:16:07.768Z,10.15
2017-09-22T10:19:10.111Z,11.95
2017-09-22T10:22:12.076Z,11.27
2017-09-22T10:25:14.444Z,10.02
2017-09-22T10:28:17.305Z,12.50
2017-09-22T10:31:19.663Z,12.75
2017-09-22T10:34:21.601Z,11.25
2017-09-22T10:37:24.060Z,10.55
2017-09-22T10:40:26.126Z,11.10
2017-09-22T10:43:28.453Z,11.35
2017-09-22T10:46:30.398Z,11.12
2017-09-22T10:49:32.978Z,9.95
2017-09-22T10:52:35.405Z,8.63
2017-09-22T10:55:38.512Z,7.75
2017-09-22T10:58:40.568Z,8.02
2017-09-22T11:01:42.916Z,10.32
2017-09-22T11:04:44.901Z,10.07
2017-09-22T11:07:47.238Z,10.13
2017-09-22T11:10:49.308Z,8.05
2017-09-22T11:13:51.644Z,7.87
2017-09-22T11:16:53.578Z,9.55
2017-09-22T11:19:56.039Z,9.10
2017-09-22T11:22:58.088Z,8.20
2017-09-22T11:26:00.445Z,7.30
2017-09-22T11:29:02.398Z,6.82
2017-09-22T11:32:04.244Z,6.82
2017-09-22T11:35:07.204Z,7.30
2017-09-22T11:38:09.497Z,10.05
2017-09-22T11:41:11.533Z,8.70
2017-09-22T11:44:13.806Z,9.85
2017-09-22T11:47:15.818Z,10.50
2017-09-22T11:50:18.094Z,9.27
2017-09-22T11:53:20.134Z,10.85
2017-09-22T11:56:22.508Z,11.15
2017-09-22T11:59:24.554Z,10.27
2017-09-22T12:02:26.909Z,11.70
2017-09-22T12:05:29.034Z,13.82
2017-09-22T12:08:31.459Z,11.73
2017-09-22T12:11:33.401Z,13.77
2017-09-22T12:14:35.716Z,12.30
2017-09-22T12:17:37.662Z,12.15
2017-09-22T12:20:39.955Z,12.75
2017-09-22T12:23:41.915Z,13.85
2017-09-22T12:26:44.230Z,13.75
2017-09-22T12:29:46.281Z,11.35
2017-09-22T12:32:48.631Z,10.43
2017-09-22T12:35:50.593Z,10.90
2017-09-22T12:38:53.046Z,10.93
2017-09-22T12:41:55.009Z,10.35
2017-09-22T12:44:58.161Z,10.77
2017-09-22T12:48:00.133Z,8.73
2017-09-22T12:51:02.466Z,7.18
2017-09-22T12:54:04.419Z,8.63
2017-09-22T12:57:06.776Z,9.82
2017-09-22T13:00:08.925Z,8.85
2017-09-22T13:03:11.262Z,8.63
2017-09-22T13:06:13.235Z,8.55
2017-09-22T13:09:15.588Z,8.98
2017-09-22T13:12:17.550Z,10.73
2017-09-22T13:15:19.921Z,9.57
2017-09-22T13:18:21.968Z,9.18
2017-09-22T13:21:24.304Z,9.75
2017-09-22T13:24:26.349Z,8.50
2017-09-22T13:27:28.698Z,6.75
2017-09-22T13:30:30.667Z,8.32
2017-09-22T13:33:33.015Z,6.20
2017-09-22T13:36:34.961Z,4.75
2017-09-22T13:39:37.335Z,4.72
2017-09-22T13:42:39.402Z,4.28
2017-09-22T13:45:41.732Z,4.30
2017-09-22T13:48:43.673Z,5.47
2017-09-22T13:51:46.047Z,5.18
2017-09-22T13:54:49.526Z,4.97
2017-09-22T13:57:51.885Z,5.50
2017-09-22T14:00:53.832Z,4.40
2017-09-22T14:03:56.167Z,5.20
2017-09-22T14:06:58.087Z,4.40
2017-09-22T14:10:00.387Z,4.00
2017-09-22T14:13:02.340Z,3.87
2017-09-22T14:16:04.695Z,3.62
2017-09-22T14:19:06.640Z,3.95
2017-09-22T14:22:08.985Z,4.97
2017-09-22T14:25:10.935Z,5.20
2017-09-22T14:28:13.313Z,4.97
2017-09-22T14:31:15.268Z,4.25
2017-09-22T14:34:17.603Z,4.28
2017-09-22T14:37:20.273Z,3.87
2017-09-22T14:40:22.589Z,3.35
2017-09-22T14:43:24.571Z,3.90
2017-09-22T14:46:27.152Z,4.32
2017-09-22T14:49:29.272Z,5.47
2017-09-22T14:52:31.659Z,4.45
2017-09-22T14:55:33.609Z,3.92
2017-09-22T14:58:35.955Z,3.78
2017-09-22T15:01:37.904Z,4.68
2017-09-22T15:04:40.282Z,5.20
2017-09-22T15:07:42.324Z,5.07
2017-09-22T15:10:44.674Z,4.55
2017-09-22T15:13:46.600Z,4.28
2017-09-22T15:16:48.872Z,5.93
2017-09-22T15:19:50.828Z,7.37
2017-09-22T15:22:53.217Z,6.70
2017-09-22T15:25:55.241Z,6.18
2017-09-22T15:28:57.588Z,4.68
2017-09-22T15:31:59.517Z,4.57
2017-09-22T15:35:01.907Z,5.53
2017-09-22T15:38:03.938Z,4.70
2017-09-22T15:41:06.320Z,5.97
2017-09-22T15:44:08.361Z,12.32
2017-09-22T15:47:10.705Z,21.67
2017-09-22T15:50:12.647Z,22.75
2017-09-22T15:53:15.008Z,22.92
2017-09-22T15:56:16.973Z,22.70
2017-09-22T15:59:19.424Z,25.52
2017-09-22T16:02:21.480Z,25.85
2017-09-22T16:05:23.959Z,28.40
2017-09-22T16:08:25.903Z,30.00
2017-09-22T16:11:28.451Z,29.80
2017-09-22T16:14:30.493Z,29.45
2017-09-22T16:17:32.859Z,30.52
2017-09-22T16:20:35.835Z,31.15
2017-09-22T16:23:38.286Z,30.30
2017-09-22T16:26:40.220Z,30.65
2017-09-22T16:29:42.606Z,30.80
2017-09-22T16:32:44.551Z,30.15
2017-09-22T16:35:46.892Z,30.08
2017-09-22T16:38:48.833Z,31.20
2017-09-22T16:41:51.199Z,31.75
2017-09-22T16:44:53.242Z,33.08
2017-09-22T16:47:55.552Z,33.25
2017-09-22T16:50:57.544Z,33.72
2017-09-22T16:53:59.924Z,32.33
2017-09-22T16:57:01.999Z,31.37
2017-09-22T17:00:05.867Z,31.02
2017-09-22T17:03:07.865Z,31.67
2017-09-22T17:06:11.002Z,31.02
2017-09-22T17:09:12.943Z,32.35
2017-09-22T17:12:15.308Z,40.05
2017-09-22T17:15:17.285Z,37.53
2017-09-22T17:18:20.339Z,35.55
2017-09-22T17:21:22.264Z,33.88
2017-09-22T17:24:24.634Z,32.70
2017-09-22T17:27:26.680Z,33.47
2017-09-22T17:30:29.029Z,33.10
2017-09-22T17:33:31.076Z,34.20
2017-09-22T17:36:33.353Z,35.13
2017-09-22T17:39:35.298Z,34.28
2017-09-22T17:42:37.630Z,33.60
2017-09-22T17:45:39.580Z,39.83
2017-09-22T17:48:42.051Z,40.60
2017-09-22T17:51:44.113Z,35.65
2017-09-22T17:54:46.450Z,35.65
2017-09-22T17:57:48.524Z,33.72
2017-09-22T18:00:50.800Z,34.75
2017-09-22T18:03:52.816Z,34.45
2017-09-22T18:06:56.721Z,34.22
2017-09-22T18:09:58.753Z,35.22
2017-09-22T18:13:01.207Z,36.80
2017-09-22T18:16:03.174Z,38.08
2017-09-22T18:19:05.512Z,34.08
2017-09-22T18:22:08.246Z,33.55
2017-09-22T18:25:11.376Z,35.83
2017-09-22T18:28:13.331Z,36.63
2017-09-22T18:31:15.702Z,37.42
2017-09-22T18:34:17.715Z,30.80
2017-09-22T18:37:20.083Z,30.23
2017-09-22T18:40:22.131Z,41.40
2017-09-22T18:43:24.423Z,34.90
2017-09-22T18:46:26.456Z,31.80
2017-09-22T18:49:28.792Z,31.23
2017-09-22T18:52:30.745Z,35.28
2017-09-22T18:55:33.093Z,34.65
2017-09-22T18:58:35.045Z,35.38
2017-09-22T19:01:37.455Z,34.80
2017-09-22T19:04:40.840Z,33.05
2017-09-22T19:07:44.112Z,34.45
2017-09-22T19:10:46.945Z,36.03
2017-09-22T19:13:49.310Z,34.90
2017-09-22T19:16:52.057Z,35.38
2017-09-22T19:19:54.408Z,34.17
2017-09-22T19:22:57.404Z,33.70
2017-09-22T19:25:59.761Z,34.60
2017-09-22T19:29:01.817Z,31.60
2017-09-22T19:32:04.158Z,32.60
2017-09-22T19:35:06.739Z,30.95
2017-09-22T19:38:09.076Z,32.55
2017-09-22T19:41:11.136Z,33.40
2017-09-22T19:44:13.504Z,33.22
2017-09-22T19:47:15.449Z,31.75
2017-09-22T19:50:17.819Z,32.20
2017-09-22T19:53:19.766Z,33.80
2017-09-22T19:56:22.125Z,34.85
2017-09-22T19:59:24.154Z,32.63
2017-09-22T20:02:26.431Z,33.15
2017-09-22T20:05:28.447Z,31.77
2017-09-22T20:08:30.736Z,32.70
2017-09-22T20:11:33.538Z,32.42
2017-09-22T20:14:37.407Z,32.03
2017-09-22T20:17:41.385Z,33.28
2017-09-22T20:20:43.704Z,32.75
2017-09-22T20:23:45.768Z,35.17
2017-09-22T20:26:48.118Z,34.00
2017-09-22T20:29:50.087Z,32.80
2017-09-22T20:32:52.431Z,36.28
2017-09-22T20:35:55.259Z,34.30
2017-09-22T20:38:58.397Z,33.47
2017-09-22T20:42:00.418Z,35.60
2017-09-22T20:45:02.770Z,33.63
2017-09-22T20:48:04.803Z,34.10
2017-09-22T20:51:07.192Z,34.58
2017-09-22T20:54:09.160Z,32.45
2017-09-22T20:57:11.490Z,33.15
2017-09-22T21:00:13.447Z,33.05
2017-09-22T21:03:15.843Z,33.40
2017-09-22T21:06:17.846Z,33.72
2017-09-22T21:09:20.208Z,34.47
2017-09-22T21:12:22.161Z,36.78
2017-09-22T21:15:24.616Z,34.05
2017-09-22T21:18:27.400Z,36.63
2017-09-22T21:21:29.692Z,39.75
2017-09-22T21:24:32.518Z,42.80
2017-09-22T21:27:34.800Z,41.80
2017-09-22T21:30:36.753Z,40.05
2017-09-22T21:33:39.366Z,38.10
2017-09-22T21:36:41.306Z,43.22
2017-09-22T21:39:43.694Z,39.92
2017-09-22T21:42:45.655Z,40.55
2017-09-22T21:45:48.187Z,40.08
2017-09-22T21:48:50.295Z,40.45
2017-09-22T21:51:52.723Z,40.33
2017-09-22T21:54:54.664Z,42.20
2017-09-22T21:57:56.999Z,40.58
2017-09-22T22:00:58.947Z,40.47
2017-09-22T22:04:01.317Z,41.83
2017-09-22T22:07:03.368Z,37.72
2017-09-22T22:10:06.545Z,37.90
2017-09-22T22:13:08.500Z,39.50
2017-09-22T22:16:10.804Z,39.08
2017-09-22T22:19:13.609Z,36.15
2017-09-22T22:22:16.050Z,37.17
2017-09-22T22:25:17.993Z,36.17
2017-09-22T22:28:20.371Z,34.63
2017-09-22T22:31:22.451Z,36.33
2017-09-22T22:34:24.796Z,37.47
2017-09-22T22:37:30.554Z,36.80
2017-09-22T22:40:32.885Z,36.28
2017-09-22T22:43:34.932Z,35.97
2017-09-22T22:46:37.292Z,36.85
2017-09-22T22:49:39.481Z,38.70
2017-09-22T22:52:41.788Z,37.50
2017-09-22T22:55:43.722Z,38.67
2017-09-22T22:58:46.113Z,34.93
2017-09-22T23:01:48.082Z,38.83
2017-09-22T23:04:50.500Z,36.57
2017-09-22T23:07:52.448Z,36.00
2017-09-22T23:10:54.807Z,35.90
2017-09-22T23:13:57.388Z,37.37
2017-09-22T23:16:59.730Z,36.03
2017-09-22T23:20:01.827Z,35.45
2017-09-22T23:23:04.339Z,39.22
2017-09-22T23:26:06.276Z,39.88
2017-09-22T23:29:08.752Z,41.45
2017-09-22T23:32:10.721Z,41.15
2017-09-22T23:35:13.059Z,39.58
2017-09-22T23:38:15.008Z,41.90
2017-09-22T23:41:17.273Z,39.15
2017-09-22T23:44:19.518Z,38.33
2017-09-22T23:47:21.917Z,42.78
2017-09-22T23:50:23.863Z,40.63
2017-09-22T23:53:26.196Z,42.73
2017-09-22T23:56:28.226Z,42.10
2017-09-22T23:59:30.596Z,42.77
